sensor_id;sensor_type;location;lat;lon;timestamp;P1;durP1;ratioP1;P2;durP2;ratioP2
12968;SDS011;6549;53.128;8.182;2022-11-20T00:01:35;29.05;;;15.02;;
12968;SDS011;6549;53.128;8.182;2022-11-20T00:04:36;21.90;;;12.98;;
12968;SDS011;6549;53.128;8.182;2022-11-20T00:07:36;22.10;;;13.02;;
12968;SDS011;6549;53.128;8.182;2022-11-20T00:10:37;20.45;;;11.85;;
12968;SDS011;6549;53.128;8.182;2022-11-20T00:13:38;21.65;;;12.63;;
12968;SDS011;6549;53.128;8.182;2022-11-20T00:16:38;19.10;;;11.82;;
12968;SDS011;6549;53.128;8.182;2022-11-20T00:19:39;20.15;;;11.60;;
12968;SDS011;6549;53.128;8.182;2022-11-20T00:22:39;19.83;;;12.30;;
12968;SDS011;6549;53.128;8.182;2022-11-20T00:25:39;20.88;;;11.95;;
12968;SDS011;6549;53.128;8.182;2022-11-20T00:28:40;18.60;;;11.32;;
12968;SDS011;6549;53.128;8.182;2022-11-20T00:31:41;18.25;;;11.60;;
12968;SDS011;6549;53.128;8.182;2022-11-20T00:34:42;17.98;;;11.18;;
12968;SDS011;6549;53.128;8.182;2022-11-20T00:37:42;19.42;;;10.48;;
12968;SDS011;6549;53.128;8.182;2022-11-20T00:40:42;17.35;;;10.35;;
12968;SDS011;6549;53.128;8.182;2022-11-20T00:43:43;16.65;;;10.07;;
12968;SDS011;6549;53.128;8.182;2022-11-20T00:46:43;17.35;;;10.55;;
12968;SDS011;6549;53.128;8.182;2022-11-20T00:49:44;18.27;;;10.25;;
12968;SDS011;6549;53.128;8.182;2022-11-20T00:52:44;17.25;;;10.10;;
12968;SDS011;6549;53.128;8.182;2022-11-20T00:55:58;18.90;;;11.18;;
12968;SDS011;6549;53.128;8.182;2022-11-20T00:59:00;15.25;;;9.38;;
12968;SDS011;6549;53.128;8.182;2022-11-20T01:02:01;17.88;;;9.98;;
12968;SDS011;6549;53.128;8.182;2022-11-20T01:05:01;16.55;;;10.18;;
12968;SDS011;6549;53.128;8.182;2022-11-20T01:08:02;15.15;;;8.65;;
12968;SDS011;6549;53.128;8.182;2022-11-20T01:11:04;15.32;;;9.00;;
12968;SDS011;6549;53.128;8.182;2022-11-20T01:14:07;15.73;;;8.88;;
12968;SDS011;6549;53.128;8.182;2022-11-20T01:17:10;14.90;;;8.88;;
12968;SDS011;6549;53.128;8.182;2022-11-20T01:20:10;17.52;;;9.65;;
12968;SDS011;6549;53.128;8.182;2022-11-20T01:23:11;16.38;;;9.60;;
12968;SDS011;6549;53.128;8.182;2022-11-20T01:26:12;14.77;;;8.95;;
12968;SDS011;6549;53.128;8.182;2022-11-20T01:29:16;15.82;;;8.90;;
12968;SDS011;6549;53.128;8.182;2022-11-20T01:32:20;14.73;;;8.90;;
12968;SDS011;6549;53.128;8.182;2022-11-20T01:35:20;16.05;;;8.90;;
12968;SDS011;6549;53.128;8.182;2022-11-20T01:38:20;16.13;;;9.50;;
12968;SDS011;6549;53.128;8.182;2022-11-20T01:41:23;14.63;;;9.03;;
12968;SDS011;6549;53.128;8.182;2022-11-20T01:47:57;14.63;;;9.32;;
12968;SDS011;6549;53.128;8.182;2022-11-20T01:50:57;15.32;;;8.73;;
12968;SDS011;6549;53.128;8.182;2022-11-20T01:53:59;17.20;;;10.43;;
12968;SDS011;6549;53.128;8.182;2022-11-20T02:00:09;15.98;;;8.50;;
12968;SDS011;6549;53.128;8.182;2022-11-20T02:03:13;15.35;;;8.27;;
12968;SDS011;6549;53.128;8.182;2022-11-20T02:06:19;14.68;;;8.65;;
12968;SDS011;6549;53.128;8.182;2022-11-20T02:09:25;14.10;;;8.20;;
12968;SDS011;6549;53.128;8.182;2022-11-20T02:12:25;13.15;;;8.30;;
12968;SDS011;6549;53.128;8.182;2022-11-20T02:15:44;13.27;;;7.82;;
12968;SDS011;6549;53.128;8.182;2022-11-20T02:18:45;14.25;;;8.02;;
12968;SDS011;6549;53.128;8.182;2022-11-20T02:21:48;13.23;;;8.00;;
12968;SDS011;6549;53.128;8.182;2022-11-20T02:24:56;12.57;;;7.95;;
12968;SDS011;6549;53.128;8.182;2022-11-20T02:28:01;13.70;;;8.05;;
12968;SDS011;6549;53.128;8.182;2022-11-20T02:31:02;15.25;;;9.55;;
12968;SDS011;6549;53.128;8.182;2022-11-20T02:34:02;12.80;;;8.65;;
12968;SDS011;6549;53.128;8.182;2022-11-20T02:37:02;13.82;;;8.43;;
12968;SDS011;6549;53.128;8.182;2022-11-20T02:40:03;15.68;;;8.45;;
12968;SDS011;6549;53.128;8.182;2022-11-20T02:43:04;14.50;;;8.57;;
12968;SDS011;6549;53.128;8.182;2022-11-20T02:46:07;14.95;;;9.07;;
12968;SDS011;6549;53.128;8.182;2022-11-20T02:49:08;12.18;;;8.18;;
12968;SDS011;6549;53.128;8.182;2022-11-20T02:52:08;16.60;;;9.43;;
12968;SDS011;6549;53.128;8.182;2022-11-20T02:55:08;13.68;;;7.93;;
12968;SDS011;6549;53.128;8.182;2022-11-20T02:58:09;14.50;;;8.70;;
12968;SDS011;6549;53.128;8.182;2022-11-20T03:01:10;16.02;;;9.10;;
12968;SDS011;6549;53.128;8.182;2022-11-20T03:04:10;15.23;;;8.98;;
12968;SDS011;6549;53.128;8.182;2022-11-20T03:07:10;15.00;;;8.35;;
12968;SDS011;6549;53.128;8.182;2022-11-20T03:10:11;15.23;;;9.55;;
12968;SDS011;6549;53.128;8.182;2022-11-20T03:13:11;15.68;;;9.63;;
12968;SDS011;6549;53.128;8.182;2022-11-20T03:16:19;15.30;;;9.27;;
12968;SDS011;6549;53.128;8.182;2022-11-20T03:19:20;13.25;;;7.82;;
12968;SDS011;6549;53.128;8.182;2022-11-20T03:22:21;13.85;;;8.80;;
12968;SDS011;6549;53.128;8.182;2022-11-20T03:25:21;14.02;;;8.68;;
12968;SDS011;6549;53.128;8.182;2022-11-20T03:28:22;14.75;;;9.10;;
12968;SDS011;6549;53.128;8.182;2022-11-20T03:31:23;18.20;;;9.63;;
12968;SDS011;6549;53.128;8.182;2022-11-20T03:34:25;15.23;;;9.13;;
12968;SDS011;6549;53.128;8.182;2022-11-20T03:37:25;15.50;;;8.98;;
12968;SDS011;6549;53.128;8.182;2022-11-20T03:40:26;16.55;;;9.77;;
12968;SDS011;6549;53.128;8.182;2022-11-20T03:43:26;13.88;;;8.70;;
12968;SDS011;6549;53.128;8.182;2022-11-20T03:46:27;15.63;;;9.45;;
12968;SDS011;6549;53.128;8.182;2022-11-20T03:49:28;14.52;;;8.77;;
12968;SDS011;6549;53.128;8.182;2022-11-20T03:52:28;15.27;;;9.77;;
12968;SDS011;6549;53.128;8.182;2022-11-20T03:55:28;12.93;;;7.78;;
12968;SDS011;6549;53.128;8.182;2022-11-20T03:58:29;14.23;;;8.75;;
12968;SDS011;6549;53.128;8.182;2022-11-20T04:01:30;15.07;;;9.50;;
12968;SDS011;6549;53.128;8.182;2022-11-20T04:04:32;15.20;;;9.05;;
12968;SDS011;6549;53.128;8.182;2022-11-20T04:07:33;14.65;;;9.05;;
12968;SDS011;6549;53.128;8.182;2022-11-20T04:10:33;14.73;;;8.60;;
12968;SDS011;6549;53.128;8.182;2022-11-20T04:13:34;15.63;;;9.38;;
12968;SDS011;6549;53.128;8.182;2022-11-20T04:16:35;14.48;;;8.20;;
12968;SDS011;6549;53.128;8.182;2022-11-20T04:19:36;19.50;;;9.80;;
12968;SDS011;6549;53.128;8.182;2022-11-20T04:22:36;14.38;;;8.68;;
12968;SDS011;6549;53.128;8.182;2022-11-20T04:25:36;13.77;;;8.50;;
12968;SDS011;6549;53.128;8.182;2022-11-20T04:28:37;14.38;;;8.70;;
12968;SDS011;6549;53.128;8.182;2022-11-20T04:31:38;11.73;;;7.75;;
12968;SDS011;6549;53.128;8.182;2022-11-20T04:34:39;14.68;;;8.73;;
12968;SDS011;6549;53.128;8.182;2022-11-20T04:37:39;12.82;;;7.50;;
12968;SDS011;6549;53.128;8.182;2022-11-20T04:40:39;14.60;;;8.27;;
12968;SDS011;6549;53.128;8.182;2022-11-20T04:43:39;12.73;;;8.10;;
12968;SDS011;6549;53.128;8.182;2022-11-20T04:46:40;13.30;;;7.93;;
12968;SDS011;6549;53.128;8.182;2022-11-20T04:49:42;10.73;;;7.03;;
12968;SDS011;6549;53.128;8.182;2022-11-20T04:52:42;13.10;;;8.23;;
12968;SDS011;6549;53.128;8.182;2022-11-20T04:55:42;15.27;;;8.20;;
12968;SDS011;6549;53.128;8.182;2022-11-20T04:58:43;12.32;;;7.35;;
12968;SDS011;6549;53.128;8.182;2022-11-20T05:01:43;15.68;;;8.90;;
12968;SDS011;6549;53.128;8.182;2022-11-20T05:04:44;12.77;;;7.45;;
12968;SDS011;6549;53.128;8.182;2022-11-20T05:07:44;12.38;;;7.60;;
12968;SDS011;6549;53.128;8.182;2022-11-20T05:10:44;12.20;;;7.88;;
12968;SDS011;6549;53.128;8.182;2022-11-20T05:13:45;14.00;;;7.88;;
12968;SDS011;6549;53.128;8.182;2022-11-20T05:16:45;12.80;;;7.28;;
12968;SDS011;6549;53.128;8.182;2022-11-20T05:19:45;12.98;;;7.93;;
12968;SDS011;6549;53.128;8.182;2022-11-20T05:22:46;14.00;;;7.82;;
12968;SDS011;6549;53.128;8.182;2022-11-20T05:25:46;12.75;;;7.18;;
12968;SDS011;6549;53.128;8.182;2022-11-20T05:28:47;11.63;;;6.75;;
12968;SDS011;6549;53.128;8.182;2022-11-20T05:31:48;12.80;;;6.95;;
12968;SDS011;6549;53.128;8.182;2022-11-20T05:34:48;10.57;;;6.97;;
12968;SDS011;6549;53.128;8.182;2022-11-20T05:37:48;10.93;;;6.20;;
12968;SDS011;6549;53.128;8.182;2022-11-20T05:40:49;10.52;;;6.55;;
12968;SDS011;6549;53.128;8.182;2022-11-20T05:43:49;12.80;;;7.00;;
12968;SDS011;6549;53.128;8.182;2022-11-20T05:46:50;15.32;;;7.90;;
12968;SDS011;6549;53.128;8.182;2022-11-20T05:49:51;13.65;;;6.97;;
12968;SDS011;6549;53.128;8.182;2022-11-20T05:52:51;13.30;;;7.57;;
12968;SDS011;6549;53.128;8.182;2022-11-20T05:55:58;11.95;;;7.15;;
12968;SDS011;6549;53.128;8.182;2022-11-20T05:58:59;12.38;;;7.80;;
12968;SDS011;6549;53.128;8.182;2022-11-20T06:01:59;18.08;;;9.63;;
12968;SDS011;6549;53.128;8.182;2022-11-20T06:05:00;15.57;;;9.57;;
12968;SDS011;6549;53.128;8.182;2022-11-20T06:08:00;15.82;;;9.07;;
12968;SDS011;6549;53.128;8.182;2022-11-20T06:11:04;14.55;;;8.85;;
12968;SDS011;6549;53.128;8.182;2022-11-20T06:14:06;15.20;;;9.18;;
12968;SDS011;6549;53.128;8.182;2022-11-20T06:17:06;15.02;;;8.93;;
12968;SDS011;6549;53.128;8.182;2022-11-20T06:20:07;13.40;;;7.82;;
12968;SDS011;6549;53.128;8.182;2022-11-20T06:23:07;15.13;;;8.82;;
12968;SDS011;6549;53.128;8.182;2022-11-20T06:26:12;15.18;;;8.85;;
12968;SDS011;6549;53.128;8.182;2022-11-20T06:29:14;17.00;;;9.48;;
12968;SDS011;6549;53.128;8.182;2022-11-20T06:32:15;14.50;;;9.07;;
12968;SDS011;6549;53.128;8.182;2022-11-20T06:35:15;14.80;;;9.32;;
12968;SDS011;6549;53.128;8.182;2022-11-20T06:38:15;14.57;;;8.80;;
12968;SDS011;6549;53.128;8.182;2022-11-20T06:41:17;15.43;;;8.70;;
12968;SDS011;6549;53.128;8.182;2022-11-20T06:44:19;15.55;;;9.77;;
12968;SDS011;6549;53.128;8.182;2022-11-20T06:47:19;15.82;;;9.95;;
12968;SDS011;6549;53.128;8.182;2022-11-20T06:50:19;17.40;;;10.98;;
12968;SDS011;6549;53.128;8.182;2022-11-20T06:53:20;14.98;;;9.45;;
12968;SDS011;6549;53.128;8.182;2022-11-20T06:56:21;16.00;;;9.70;;
12968;SDS011;6549;53.128;8.182;2022-11-20T06:59:22;14.85;;;8.77;;
12968;SDS011;6549;53.128;8.182;2022-11-20T07:02:22;13.43;;;8.10;;
12968;SDS011;6549;53.128;8.182;2022-11-20T07:05:22;12.60;;;7.90;;
12968;SDS011;6549;53.128;8.182;2022-11-20T07:08:23;12.50;;;7.60;;
12968;SDS011;6549;53.128;8.182;2022-11-20T07:11:24;11.57;;;7.40;;
12968;SDS011;6549;53.128;8.182;2022-11-20T07:14:24;11.45;;;6.72;;
12968;SDS011;6549;53.128;8.182;2022-11-20T07:17:25;13.63;;;9.38;;
12968;SDS011;6549;53.128;8.182;2022-11-20T07:20:25;16.23;;;10.15;;
12968;SDS011;6549;53.128;8.182;2022-11-20T07:23:26;17.40;;;10.82;;
12968;SDS011;6549;53.128;8.182;2022-11-20T07:26:26;29.55;;;20.17;;
12968;SDS011;6549;53.128;8.182;2022-11-20T07:29:26;20.33;;;13.25;;
12968;SDS011;6549;53.128;8.182;2022-11-20T07:32:27;17.55;;;10.77;;
12968;SDS011;6549;53.128;8.182;2022-11-20T07:35:27;17.25;;;10.52;;
12968;SDS011;6549;53.128;8.182;2022-11-20T07:38:27;15.52;;;9.82;;
12968;SDS011;6549;53.128;8.182;2022-11-20T07:41:28;16.15;;;9.55;;
12968;SDS011;6549;53.128;8.182;2022-11-20T07:44:29;18.67;;;11.43;;
12968;SDS011;6549;53.128;8.182;2022-11-20T07:47:34;17.92;;;11.05;;
12968;SDS011;6549;53.128;8.182;2022-11-20T07:50:35;19.00;;;11.82;;
12968;SDS011;6549;53.128;8.182;2022-11-20T07:53:35;17.65;;;11.57;;
12968;SDS011;6549;53.128;8.182;2022-11-20T07:56:36;18.50;;;12.20;;
12968;SDS011;6549;53.128;8.182;2022-11-20T07:59:36;20.13;;;12.65;;
12968;SDS011;6549;53.128;8.182;2022-11-20T08:02:40;18.25;;;12.55;;
12968;SDS011;6549;53.128;8.182;2022-11-20T08:05:41;17.33;;;11.50;;
12968;SDS011;6549;53.128;8.182;2022-11-20T08:08:41;18.13;;;11.63;;
12968;SDS011;6549;53.128;8.182;2022-11-20T08:11:41;18.60;;;11.40;;
12968;SDS011;6549;53.128;8.182;2022-11-20T08:15:00;19.15;;;11.48;;
12968;SDS011;6549;53.128;8.182;2022-11-20T08:18:04;16.02;;;9.65;;
12968;SDS011;6549;53.128;8.182;2022-11-20T08:21:06;17.25;;;10.02;;
12968;SDS011;6549;53.128;8.182;2022-11-20T08:24:07;16.83;;;10.00;;
12968;SDS011;6549;53.128;8.182;2022-11-20T08:27:07;17.38;;;10.52;;
12968;SDS011;6549;53.128;8.182;2022-11-20T08:30:08;18.42;;;10.38;;
12968;SDS011;6549;53.128;8.182;2022-11-20T08:33:09;19.23;;;12.43;;
12968;SDS011;6549;53.128;8.182;2022-11-20T08:36:09;18.27;;;10.52;;
12968;SDS011;6549;53.128;8.182;2022-11-20T08:39:13;20.25;;;11.88;;
12968;SDS011;6549;53.128;8.182;2022-11-20T08:42:13;21.60;;;13.25;;
12968;SDS011;6549;53.128;8.182;2022-11-20T08:45:14;19.80;;;12.45;;
12968;SDS011;6549;53.128;8.182;2022-11-20T08:48:15;20.92;;;11.45;;
12968;SDS011;6549;53.128;8.182;2022-11-20T08:51:16;23.15;;;12.80;;
12968;SDS011;6549;53.128;8.182;2022-11-20T08:54:17;20.30;;;11.27;;
12968;SDS011;6549;53.128;8.182;2022-11-20T08:57:19;18.00;;;11.43;;
12968;SDS011;6549;53.128;8.182;2022-11-20T09:00:20;19.58;;;11.63;;
12968;SDS011;6549;53.128;8.182;2022-11-20T09:03:20;19.73;;;12.52;;
12968;SDS011;6549;53.128;8.182;2022-11-20T09:06:20;15.70;;;10.57;;
12968;SDS011;6549;53.128;8.182;2022-11-20T09:09:21;15.85;;;10.50;;
12968;SDS011;6549;53.128;8.182;2022-11-20T09:12:21;17.15;;;10.48;;
12968;SDS011;6549;53.128;8.182;2022-11-20T09:15:22;18.65;;;10.45;;
12968;SDS011;6549;53.128;8.182;2022-11-20T09:18:23;21.02;;;13.13;;
12968;SDS011;6549;53.128;8.182;2022-11-20T09:21:24;16.77;;;10.20;;
12968;SDS011;6549;53.128;8.182;2022-11-20T09:24:24;19.35;;;12.13;;
12968;SDS011;6549;53.128;8.182;2022-11-20T09:27:25;17.52;;;11.82;;
12968;SDS011;6549;53.128;8.182;2022-11-20T09:30:25;17.77;;;11.77;;
12968;SDS011;6549;53.128;8.182;2022-11-20T09:33:26;16.77;;;10.57;;
12968;SDS011;6549;53.128;8.182;2022-11-20T09:36:27;18.05;;;10.13;;
12968;SDS011;6549;53.128;8.182;2022-11-20T09:39:27;16.08;;;9.68;;
12968;SDS011;6549;53.128;8.182;2022-11-20T09:42:32;18.98;;;10.90;;
12968;SDS011;6549;53.128;8.182;2022-11-20T09:45:59;18.70;;;11.05;;
12968;SDS011;6549;53.128;8.182;2022-11-20T09:55:36;17.63;;;10.98;;
12968;SDS011;6549;53.128;8.182;2022-11-20T10:02:25;21.17;;;12.25;;
12968;SDS011;6549;53.128;8.182;2022-11-20T10:05:38;17.17;;;10.25;;
12968;SDS011;6549;53.128;8.182;2022-11-20T10:08:45;16.13;;;10.20;;
12968;SDS011;6549;53.128;8.182;2022-11-20T10:15:22;15.00;;;9.35;;
12968;SDS011;6549;53.128;8.182;2022-11-20T10:18:44;14.82;;;8.88;;
12968;SDS011;6549;53.128;8.182;2022-11-20T10:22:19;15.65;;;9.25;;
12968;SDS011;6549;53.128;8.182;2022-11-20T10:25:28;16.20;;;9.82;;
12968;SDS011;6549;53.128;8.182;2022-11-20T10:32:00;15.20;;;9.48;;
12968;SDS011;6549;53.128;8.182;2022-11-20T10:38:48;13.43;;;8.10;;
12968;SDS011;6549;53.128;8.182;2022-11-20T10:41:53;12.73;;;8.30;;
12968;SDS011;6549;53.128;8.182;2022-11-20T10:44:55;12.65;;;8.57;;
12968;SDS011;6549;53.128;8.182;2022-11-20T10:55:08;12.80;;;7.93;;
12968;SDS011;6549;53.128;8.182;2022-11-20T10:58:46;13.90;;;8.98;;
12968;SDS011;6549;53.128;8.182;2022-11-20T11:01:58;13.85;;;8.13;;
12968;SDS011;6549;53.128;8.182;2022-11-20T11:04:58;11.65;;;7.95;;
12968;SDS011;6549;53.128;8.182;2022-11-20T11:08:12;13.77;;;8.80;;
12968;SDS011;6549;53.128;8.182;2022-11-20T11:14:22;13.43;;;8.27;;
12968;SDS011;6549;53.128;8.182;2022-11-20T11:17:28;14.57;;;7.88;;
12968;SDS011;6549;53.128;8.182;2022-11-20T11:20:30;13.18;;;7.90;;
12968;SDS011;6549;53.128;8.182;2022-11-20T11:23:42;12.50;;;7.47;;
12968;SDS011;6549;53.128;8.182;2022-11-20T11:26:50;21.17;;;11.63;;
12968;SDS011;6549;53.128;8.182;2022-11-20T11:30:12;14.15;;;8.00;;
12968;SDS011;6549;53.128;8.182;2022-11-20T11:33:24;12.18;;;7.30;;
12968;SDS011;6549;53.128;8.182;2022-11-20T11:36:26;14.43;;;7.95;;
12968;SDS011;6549;53.128;8.182;2022-11-20T11:39:27;13.50;;;8.05;;
12968;SDS011;6549;53.128;8.182;2022-11-20T11:42:29;11.45;;;7.13;;
12968;SDS011;6549;53.128;8.182;2022-11-20T11:45:30;12.98;;;7.40;;
12968;SDS011;6549;53.128;8.182;2022-11-20T11:48:31;12.55;;;7.75;;
12968;SDS011;6549;53.128;8.182;2022-11-20T11:51:33;11.65;;;7.55;;
12968;SDS011;6549;53.128;8.182;2022-11-20T11:54:55;10.95;;;7.13;;
12968;SDS011;6549;53.128;8.182;2022-11-20T12:04:46;10.48;;;6.95;;
12968;SDS011;6549;53.128;8.182;2022-11-20T12:17:27;11.05;;;6.40;;
12968;SDS011;6549;53.128;8.182;2022-11-20T12:20:32;11.55;;;7.10;;
12968;SDS011;6549;53.128;8.182;2022-11-20T12:23:44;10.82;;;7.50;;
12968;SDS011;6549;53.128;8.182;2022-11-20T12:30:33;11.30;;;7.07;;
12968;SDS011;6549;53.128;8.182;2022-11-20T12:37:17;13.02;;;7.57;;
12968;SDS011;6549;53.128;8.182;2022-11-20T12:44:06;12.48;;;8.00;;
12968;SDS011;6549;53.128;8.182;2022-11-20T12:54:37;11.95;;;7.63;;
12968;SDS011;6549;53.128;8.182;2022-11-20T12:57:45;12.88;;;8.02;;
12968;SDS011;6549;53.128;8.182;2022-11-20T13:01:47;13.60;;;8.00;;
12968;SDS011;6549;53.128;8.182;2022-11-20T13:08:01;12.10;;;7.80;;
12968;SDS011;6549;53.128;8.182;2022-11-20T13:14:24;12.15;;;8.15;;
12968;SDS011;6549;53.128;8.182;2022-11-20T13:17:43;13.00;;;8.30;;
12968;SDS011;6549;53.128;8.182;2022-11-20T13:20:51;14.70;;;7.82;;
12968;SDS011;6549;53.128;8.182;2022-11-20T13:23:52;12.35;;;7.00;;
12968;SDS011;6549;53.128;8.182;2022-11-20T13:27:02;11.48;;;7.40;;
12968;SDS011;6549;53.128;8.182;2022-11-20T13:30:20;14.32;;;7.75;;
12968;SDS011;6549;53.128;8.182;2022-11-20T13:33:35;13.70;;;7.82;;
12968;SDS011;6549;53.128;8.182;2022-11-20T13:36:47;12.70;;;8.18;;
12968;SDS011;6549;53.128;8.182;2022-11-20T13:39:52;10.70;;;6.70;;
12968;SDS011;6549;53.128;8.182;2022-11-20T13:46:12;10.88;;;6.60;;
12968;SDS011;6549;53.128;8.182;2022-11-20T13:49:45;11.25;;;6.53;;
12968;SDS011;6549;53.128;8.182;2022-11-20T13:53:00;12.90;;;6.40;;
12968;SDS011;6549;53.128;8.182;2022-11-20T13:56:24;12.25;;;7.38;;
12968;SDS011;6549;53.128;8.182;2022-11-20T14:00:01;11.50;;;7.05;;
12968;SDS011;6549;53.128;8.182;2022-11-20T14:03:20;10.73;;;6.80;;
12968;SDS011;6549;53.128;8.182;2022-11-20T14:06:29;9.75;;;5.82;;
12968;SDS011;6549;53.128;8.182;2022-11-20T14:09:32;9.93;;;6.45;;
12968;SDS011;6549;53.128;8.182;2022-11-20T14:12:34;11.23;;;7.90;;
12968;SDS011;6549;53.128;8.182;2022-11-20T14:15:34;11.23;;;7.22;;
12968;SDS011;6549;53.128;8.182;2022-11-20T14:18:34;11.25;;;7.63;;
12968;SDS011;6549;53.128;8.182;2022-11-20T14:21:35;13.32;;;8.52;;
12968;SDS011;6549;53.128;8.182;2022-11-20T14:24:35;14.32;;;8.95;;
12968;SDS011;6549;53.128;8.182;2022-11-20T14:27:36;13.25;;;8.45;;
12968;SDS011;6549;53.128;8.182;2022-11-20T14:30:45;13.77;;;8.70;;
12968;SDS011;6549;53.128;8.182;2022-11-20T14:33:47;12.23;;;8.65;;
12968;SDS011;6549;53.128;8.182;2022-11-20T14:36:55;13.70;;;8.32;;
12968;SDS011;6549;53.128;8.182;2022-11-20T14:39:59;11.35;;;7.30;;
12968;SDS011;6549;53.128;8.182;2022-11-20T14:43:00;11.15;;;7.65;;
12968;SDS011;6549;53.128;8.182;2022-11-20T14:46:08;13.27;;;8.48;;
12968;SDS011;6549;53.128;8.182;2022-11-20T14:49:09;12.25;;;7.32;;
12968;SDS011;6549;53.128;8.182;2022-11-20T14:52:12;14.27;;;8.65;;
12968;SDS011;6549;53.128;8.182;2022-11-20T14:58:21;12.63;;;7.93;;
12968;SDS011;6549;53.128;8.182;2022-11-20T15:01:26;12.13;;;7.95;;
12968;SDS011;6549;53.128;8.182;2022-11-20T15:04:28;12.15;;;8.23;;
12968;SDS011;6549;53.128;8.182;2022-11-20T15:07:30;13.50;;;8.90;;
12968;SDS011;6549;53.128;8.182;2022-11-20T15:10:32;13.88;;;8.35;;
12968;SDS011;6549;53.128;8.182;2022-11-20T15:13:33;12.00;;;8.10;;
12968;SDS011;6549;53.128;8.182;2022-11-20T15:16:36;15.00;;;8.23;;
12968;SDS011;6549;53.128;8.182;2022-11-20T15:19:37;13.40;;;7.90;;
12968;SDS011;6549;53.128;8.182;2022-11-20T15:22:37;11.00;;;7.55;;
12968;SDS011;6549;53.128;8.182;2022-11-20T15:25:38;11.02;;;6.78;;
12968;SDS011;6549;53.128;8.182;2022-11-20T15:28:40;12.25;;;7.45;;
12968;SDS011;6549;53.128;8.182;2022-11-20T15:31:42;10.48;;;6.93;;
12968;SDS011;6549;53.128;8.182;2022-11-20T15:34:44;13.00;;;8.30;;
12968;SDS011;6549;53.128;8.182;2022-11-20T15:37:44;12.82;;;8.98;;
12968;SDS011;6549;53.128;8.182;2022-11-20T15:40:45;15.00;;;9.52;;
12968;SDS011;6549;53.128;8.182;2022-11-20T15:43:45;13.85;;;8.98;;
12968;SDS011;6549;53.128;8.182;2022-11-20T15:46:46;14.13;;;9.23;;
12968;SDS011;6549;53.128;8.182;2022-11-20T15:49:46;10.73;;;8.02;;
12968;SDS011;6549;53.128;8.182;2022-11-20T15:52:47;13.75;;;9.15;;
12968;SDS011;6549;53.128;8.182;2022-11-20T15:55:47;14.68;;;9.25;;
12968;SDS011;6549;53.128;8.182;2022-11-20T15:58:47;14.15;;;8.98;;
12968;SDS011;6549;53.128;8.182;2022-11-20T16:01:48;14.15;;;9.07;;
12968;SDS011;6549;53.128;8.182;2022-11-20T16:04:48;12.15;;;8.57;;
12968;SDS011;6549;53.128;8.182;2022-11-20T16:07:49;14.55;;;9.38;;
12968;SDS011;6549;53.128;8.182;2022-11-20T16:10:50;13.88;;;8.85;;
12968;SDS011;6549;53.128;8.182;2022-11-20T16:13:51;14.35;;;9.20;;
12968;SDS011;6549;53.128;8.182;2022-11-20T16:17:17;16.45;;;9.48;;
12968;SDS011;6549;53.128;8.182;2022-11-20T16:20:37;15.52;;;9.43;;
12968;SDS011;6549;53.128;8.182;2022-11-20T16:23:38;16.48;;;11.05;;
12968;SDS011;6549;53.128;8.182;2022-11-20T16:26:39;15.52;;;9.98;;
12968;SDS011;6549;53.128;8.182;2022-11-20T16:29:40;15.65;;;9.93;;
12968;SDS011;6549;53.128;8.182;2022-11-20T16:32:40;16.00;;;9.68;;
12968;SDS011;6549;53.128;8.182;2022-11-20T16:35:40;16.58;;;10.63;;
12968;SDS011;6549;53.128;8.182;2022-11-20T16:38:41;15.18;;;9.55;;
12968;SDS011;6549;53.128;8.182;2022-11-20T16:41:41;15.38;;;10.15;;
12968;SDS011;6549;53.128;8.182;2022-11-20T16:44:43;16.20;;;10.85;;
12968;SDS011;6549;53.128;8.182;2022-11-20T16:47:45;15.88;;;10.20;;
12968;SDS011;6549;53.128;8.182;2022-11-20T16:50:46;20.17;;;12.73;;
12968;SDS011;6549;53.128;8.182;2022-11-20T16:53:49;18.67;;;11.80;;
12968;SDS011;6549;53.128;8.182;2022-11-20T16:56:50;15.38;;;9.95;;
12968;SDS011;6549;53.128;8.182;2022-11-20T16:59:52;19.98;;;12.75;;
12968;SDS011;6549;53.128;8.182;2022-11-20T17:02:52;18.70;;;12.23;;
12968;SDS011;6549;53.128;8.182;2022-11-20T17:05:53;19.25;;;12.32;;
12968;SDS011;6549;53.128;8.182;2022-11-20T17:08:54;20.50;;;12.95;;
12968;SDS011;6549;53.128;8.182;2022-11-20T17:11:55;19.58;;;11.45;;
12968;SDS011;6549;53.128;8.182;2022-11-20T17:14:55;19.25;;;12.52;;
12968;SDS011;6549;53.128;8.182;2022-11-20T17:17:55;19.02;;;12.55;;
12968;SDS011;6549;53.128;8.182;2022-11-20T17:20:56;18.25;;;12.20;;
12968;SDS011;6549;53.128;8.182;2022-11-20T17:24:00;21.42;;;13.55;;
12968;SDS011;6549;53.128;8.182;2022-11-20T17:27:02;22.58;;;14.15;;
12968;SDS011;6549;53.128;8.182;2022-11-20T17:30:03;23.05;;;14.85;;
12968;SDS011;6549;53.128;8.182;2022-11-20T17:33:03;22.80;;;14.48;;
12968;SDS011;6549;53.128;8.182;2022-11-20T17:36:04;20.65;;;13.45;;
12968;SDS011;6549;53.128;8.182;2022-11-20T17:39:06;18.20;;;13.20;;
12968;SDS011;6549;53.128;8.182;2022-11-20T17:42:06;21.25;;;14.20;;
12968;SDS011;6549;53.128;8.182;2022-11-20T17:45:25;21.65;;;14.48;;
12968;SDS011;6549;53.128;8.182;2022-11-20T17:48:25;21.15;;;13.80;;
12968;SDS011;6549;53.128;8.182;2022-11-20T17:51:28;19.17;;;12.90;;
12968;SDS011;6549;53.128;8.182;2022-11-20T17:57:30;21.40;;;13.40;;
12968;SDS011;6549;53.128;8.182;2022-11-20T18:00:49;19.88;;;12.45;;
12968;SDS011;6549;53.128;8.182;2022-11-20T18:03:49;21.10;;;13.30;;
12968;SDS011;6549;53.128;8.182;2022-11-20T18:06:50;21.20;;;15.32;;
12968;SDS011;6549;53.128;8.182;2022-11-20T18:09:50;21.17;;;14.35;;
12968;SDS011;6549;53.128;8.182;2022-11-20T18:12:51;23.70;;;15.13;;
12968;SDS011;6549;53.128;8.182;2022-11-20T18:15:52;23.70;;;14.90;;
12968;SDS011;6549;53.128;8.182;2022-11-20T18:18:56;23.20;;;14.65;;
12968;SDS011;6549;53.128;8.182;2022-11-20T18:21:57;24.05;;;14.55;;
12968;SDS011;6549;53.128;8.182;2022-11-20T18:25:00;26.00;;;15.18;;
12968;SDS011;6549;53.128;8.182;2022-11-20T18:28:01;24.70;;;14.90;;
12968;SDS011;6549;53.128;8.182;2022-11-20T18:31:03;20.10;;;13.48;;
12968;SDS011;6549;53.128;8.182;2022-11-20T18:34:07;23.08;;;13.10;;
12968;SDS011;6549;53.128;8.182;2022-11-20T18:37:10;27.98;;;16.30;;
12968;SDS011;6549;53.128;8.182;2022-11-20T18:40:14;25.10;;;15.18;;
12968;SDS011;6549;53.128;8.182;2022-11-20T18:43:14;21.40;;;13.70;;
12968;SDS011;6549;53.128;8.182;2022-11-20T18:46:33;21.02;;;13.15;;
12968;SDS011;6549;53.128;8.182;2022-11-20T18:49:33;25.83;;;14.80;;
12968;SDS011;6549;53.128;8.182;2022-11-20T18:52:37;22.95;;;14.23;;
12968;SDS011;6549;53.128;8.182;2022-11-20T18:55:39;25.70;;;15.13;;
12968;SDS011;6549;53.128;8.182;2022-11-20T18:58:40;21.42;;;14.55;;
12968;SDS011;6549;53.128;8.182;2022-11-20T19:01:40;22.95;;;14.13;;
12968;SDS011;6549;53.128;8.182;2022-11-20T19:04:41;19.63;;;12.40;;
12968;SDS011;6549;53.128;8.182;2022-11-20T19:07:41;21.08;;;12.45;;
12968;SDS011;6549;53.128;8.182;2022-11-20T19:10:42;19.33;;;12.23;;
12968;SDS011;6549;53.128;8.182;2022-11-20T19:13:42;18.90;;;11.32;;
12968;SDS011;6549;53.128;8.182;2022-11-20T19:16:42;20.95;;;12.15;;
12968;SDS011;6549;53.128;8.182;2022-11-20T19:19:43;22.40;;;13.15;;
12968;SDS011;6549;53.128;8.182;2022-11-20T19:22:43;19.80;;;11.98;;
12968;SDS011;6549;53.128;8.182;2022-11-20T19:25:44;20.40;;;12.45;;
12968;SDS011;6549;53.128;8.182;2022-11-20T19:28:44;21.35;;;12.63;;
12968;SDS011;6549;53.128;8.182;2022-11-20T19:31:45;25.13;;;15.57;;
12968;SDS011;6549;53.128;8.182;2022-11-20T19:34:45;24.80;;;15.05;;
12968;SDS011;6549;53.128;8.182;2022-11-20T19:37:46;21.52;;;14.25;;
12968;SDS011;6549;53.128;8.182;2022-11-20T19:40:46;21.45;;;13.30;;
12968;SDS011;6549;53.128;8.182;2022-11-20T19:43:46;26.90;;;14.98;;
12968;SDS011;6549;53.128;8.182;2022-11-20T19:46:49;26.33;;;14.68;;